Auburndale, Wisconsin
Current Conditions -  °F | °C
As of 8:54 AM on Monday 24 Nov 2014 (Local Time) from KMFI Reporting Station
Light Snow Light Snow  
Wind Chill: 23°   Ceiling: 800
Heat Index: 34°   Visibility: 3mi
Dew Point: 32°   Wind: 18mph
Humidity: 92%   Direction: 310°NW
Pressure: 29.13"   Gusts: NA
Location:  44.63°N, 90.01°W
Report Text: KMFI 241454Z AUTO 31016KT 3SM -SN BR OVC008 01/00 A2913 RMK AO2 RAE40SNB40 CIG 007V012 SLP873 P0000 60003 I1000 I3000 T00110000 53010
Loading
Personal Weather Stations






























Interactive Weather Map New forecast layout! Learn more

10-Day Weather Forecast

Advertisements
Track Severe Weather on mobile